Dean Reinauer — WDG7107 — position and weather

sailwx.info

Track history (hours):
 
Tides and Currents Weather Stations Pressure Air Temp Water Temp Dewpoint Dewpoint Depression Visibility Wind Speed Wind Dir Waves Ship Positions

Dean Reinauer

Owner: REINAUER TRANSPORTATION CO.,LLC., STATEN ISLAND, NY. More information available from US FCC via Universal Licensing System and Coast Guard Vessel Documentation Center.

Last reported at 2017-Nov-20 00:24 UTC. Time now 2017-Nov-20 07:58 UTC.
Position N 40°38' W 074°12'.

Length 152 m; draft 6.7 m.

Type: . MMSI: 367563930.

Date/timePositionNaut miles runAvg speedWind from/ knotsBaromVisibWave heightAir tempDewpointWater temp
2017-Nov-20 00:24N 40°38' W 074°12'0 0.0
2017-Nov-20 00:00N 40°38' W 074°12'0 0.0
2017-Nov-19 23:24N 40°38' W 074°12'0 0.0
2017-Nov-19 23:00N 40°38' W 074°12'0 0.1
2017-Nov-19 22:30N 40°38' W 074°12'1 1.9
2017-Nov-19 22:00N 40°38' W 074°12'3 5.9
2017-Nov-19 21:30N 40°39' W 074°08'4 7.4
2017-Nov-19 21:00N 40°40' W 074°03'4 7.9
2017-Nov-19 20:30N 40°42' W 073°59'3 6.0
2017-Nov-19 20:00N 40°45' W 073°58'4 8.1
2017-Nov-19 19:30N 40°48' W 073°54'4 7.1
2017-Nov-19 19:00N 40°48' W 073°49'2 3.9
2017-Nov-19 18:30N 40°49' W 073°47'2 4.5
2017-Nov-19 18:00N 40°51' W 073°46'1 2.8
2017-Nov-19 17:30N 40°52' W 073°45'2 3.6
2017-Nov-19 16:50N 40°54' W 073°42'43 6.0
2017-Nov-19 09:39N 41°02' W 072°46'3 8.8
2017-Nov-19 09:18N 41°02' W 072°42'3 8.6
2017-Nov-19 09:00N 41°03' W 072°39'4 8.4
2017-Nov-19 08:30N 41°05' W 072°34'4 8.2
2017-Nov-19 08:00N 41°07' W 072°29'4 8.0
2017-Nov-19 07:30N 41°08' W 072°24'4 7.3
2017-Nov-19 07:00N 41°10' W 072°20'4 7.4
2017-Nov-19 06:30N 41°11' W 072°15'4 7.5
2017-Nov-19 06:00N 41°13' W 072°10'88 8.4
2017-Nov-18 19:29N 41°58' W 070°29'610.5
2017-Nov-18 18:54N 42°04' W 070°31'510.7
2017-Nov-18 18:28N 42°08' W 070°32'510.5
2017-Nov-18 18:00N 42°13' W 070°36'510.8
2017-Nov-18 17:30N 42°16' W 070°41'510.7
2017-Nov-18 17:01N 42°20' W 070°46'510.4
2017-Nov-18 16:31N 42°23' W 070°52'5 9.9
2017-Nov-18 15:59N 42°20' W 070°58'4 8.5
2017-Nov-18 15:30N 42°22' W 071°03'2 3.5
2017-Nov-18 14:58N 42°23' W 071°01'0 0.7
2017-Nov-18 14:20N 42°24' W 071°01'0 0.0
2017-Nov-18 13:56N 42°24' W 071°01'0 0.0
2017-Nov-18 13:26N 42°24' W 071°01'0 0.0
2017-Nov-18 12:56N 42°24' W 071°01'0 0.0
2017-Nov-18 12:26N 42°24' W 071°01'0 0.0
2017-Nov-18 11:59N 42°24' W 071°01'0 0.0
2017-Nov-18 11:29N 42°24' W 071°01'0 0.0
2017-Nov-18 10:59N 42°24' W 071°01'0 0.0
2017-Nov-18 10:29N 42°24' W 071°01'0 0.0
2017-Nov-18 09:59N 42°24' W 071°01'0 0.0
2017-Nov-18 09:20N 42°24' W 071°01'0 0.0
2017-Nov-18 08:56N 42°24' W 071°01'0 0.0
2017-Nov-18 08:20N 42°24' W 071°01'0 0.0
2017-Nov-18 07:44N 42°24' W 071°01'0 0.0
2017-Nov-18 07:29N 42°24' W 071°01'0 0.0
2017-Nov-18 06:56N 42°24' W 071°01'0 0.0
2017-Nov-18 06:23N 42°24' W 071°01'0 0.0
2017-Nov-18 05:59N 42°24' W 071°01'0 0.0
2017-Nov-18 05:08N 42°24' W 071°01'0 0.0
2017-Nov-18 04:41N 42°24' W 071°01'0 0.0
2017-Nov-18 04:26N 42°24' W 071°01'0 0.0
2017-Nov-18 00:05N 42°24' W 071°01'0 0.0
2017-Nov-17 23:47N 42°24' W 071°01'0 0.0
2017-Nov-17 23:29N 42°24' W 071°01'0 0.0
2017-Nov-17 22:56N 42°24' W 071°01'0 0.0
2017-Nov-17 22:26N 42°24' W 071°01'0 0.0
2017-Nov-17 21:50N 42°24' W 071°01'0 0.0
2017-Nov-17 21:29N 42°24' W 071°01'0 0.0
2017-Nov-17 21:00N 42°24' W 071°01'1 1.9
2017-Nov-17 20:30N 42°23' W 071°02'2 3.1
2017-Nov-17 20:00N 42°22' W 071°03'1 1.0
2017-Nov-17 19:30N 42°21' W 071°02'0 0.0
2017-Nov-17 18:58N 42°21' W 071°02'0 0.0
2017-Nov-17 18:28N 42°21' W 071°02'0 0.0
2017-Nov-17 18:00N 42°21' W 071°02'0 0.0
2017-Nov-17 17:30N 42°21' W 071°02'0 0.0
2017-Nov-17 17:00N 42°21' W 071°02'0 0.0
2017-Nov-17 16:30N 42°21' W 071°02'0 0.0
2017-Nov-17 16:00N 42°21' W 071°02'0 0.0
2017-Nov-17 15:31N 42°21' W 071°02'0 0.0
2017-Nov-17 15:00N 42°21' W 071°02'0 0.0
2017-Nov-17 14:30N 42°21' W 071°02'0 0.0
2017-Nov-17 13:58N 42°21' W 071°02'0 0.0
2017-Nov-17 13:26N 42°21' W 071°02'0 0.0
2017-Nov-17 13:00N 42°21' W 071°02'0 0.0
2017-Nov-17 12:30N 42°21' W 071°02'0 0.0
2017-Nov-17 12:00N 42°21' W 071°02'0 0.0
2017-Nov-17 11:30N 42°21' W 071°02'0 0.0
2017-Nov-17 11:00N 42°21' W 071°02'0 0.0
2017-Nov-17 10:30N 42°21' W 071°02'0 0.0
2017-Nov-17 10:00N 42°21' W 071°02'0 0.0
2017-Nov-17 09:30N 42°21' W 071°02'0 0.0
2017-Nov-17 09:00N 42°21' W 071°02'0 0.0
2017-Nov-17 08:30N 42°21' W 071°02'0 0.1
2017-Nov-17 08:00N 42°21' W 071°02'1 1.5
2017-Nov-17 07:29N 42°21' W 071°01'3 6.6
2017-Nov-17 07:00N 42°20' W 070°57'4 7.7
2017-Nov-17 06:30N 42°23' W 070°53'4 8.2
2017-Nov-17 06:00N 42°21' W 070°48'4 8.9
2017-Nov-17 05:30N 42°18' W 070°43'5 8.8
2017-Nov-17 04:58N 42°15' W 070°39'4 8.9
2017-Nov-17 04:30N 42°12' W 070°35'4 8.7
2017-Nov-17 04:00N 42°08' W 070°32'91 7.6
2017-Nov-16 16:04N 41°14' W 072°10'110.9
2017-Nov-16 16:00N 41°14' W 072°11'510.7
2017-Nov-16 15:30N 41°12' W 072°17'510.4
2017-Nov-16 15:01N 41°10' W 072°24'5 9.5
2017-Nov-16 14:31N 41°08' W 072°29'5 9.2
2017-Nov-16 14:00N 41°07' W 072°35'5 9.1
2017-Nov-16 13:31N 41°06' W 072°41'46 8.9
2017-Nov-16 08:21N 40°54' W 073°40'3 9.4
2017-Nov-16 07:59N 40°52' W 073°44'5 9.2
2017-Nov-16 07:30N 40°48' W 073°47'4 8.6
2017-Nov-16 06:59N 40°48' W 073°53'3 6.3
2017-Nov-16 06:30N 40°47' W 073°56'3 5.8
2017-Nov-16 06:00N 40°44' W 073°58'2 4.5
2017-Nov-16 05:30N 40°42' W 073°60'3 5.2
2017-Nov-16 05:01N 40°40' W 074°02'1 1.2
2017-Nov-16 04:30N 40°40' W 074°03'0 0.7
2017-Nov-16 04:01N 40°40' W 074°03'0 0.4
2017-Nov-16 03:29N 40°39' W 074°03'1 1.2
2017-Nov-16 03:00N 40°39' W 074°03'3 6.4
2017-Nov-16 02:31N 40°39' W 074°08'3 5.7
2017-Nov-16 02:00N 40°39' W 074°11'1 2.3
2017-Nov-16 01:29N 40°38' W 074°12'0 0.0
2017-Nov-16 00:50N 40°38' W 074°12'0 0.0
2017-Nov-16 00:24N 40°38' W 074°12'0 0.0
2017-Nov-16 00:00N 40°38' W 074°12'0 0.0
2017-Nov-15 23:29N 40°38' W 074°12'0 0.0
2017-Nov-15 22:59N 40°38' W 074°12'0 0.0
2017-Nov-15 22:30N 40°38' W 074°12'0 0.0
2017-Nov-15 21:59N 40°38' W 074°12'0 0.0
2017-Nov-15 21:26N 40°38' W 074°12'0 0.0
2017-Nov-15 20:59N 40°38' W 074°12'0 0.0
2017-Nov-15 20:26N 40°38' W 074°12'0 0.0
2017-Nov-15 19:59N 40°38' W 074°12'0 0.0
2017-Nov-15 19:29N 40°38' W 074°12'0 0.0
2017-Nov-15 18:59N 40°38' W 074°12'0 0.0
2017-Nov-15 18:29N 40°38' W 074°12'0 0.0
2017-Nov-15 17:47N 40°38' W 074°12'0 0.0
2017-Nov-15 17:29N 40°38' W 074°12'0 0.0
2017-Nov-15 16:59N 40°38' W 074°12'0 0.0
2017-Nov-15 16:26N 40°38' W 074°12'0 0.0
2017-Nov-15 15:59N 40°38' W 074°12'0 0.0
2017-Nov-15 15:29N 40°38' W 074°12'0 0.0
2017-Nov-15 14:53N 40°38' W 074°12'0 0.0
2017-Nov-15 14:29N 40°38' W 074°12'0 0.0
2017-Nov-15 13:59N 40°38' W 074°12'0 0.0
2017-Nov-15 13:23N 40°38' W 074°12'0 0.0
2017-Nov-15 12:59N 40°38' W 074°12'0 0.0
2017-Nov-15 12:29N 40°38' W 074°12'0 0.0
2017-Nov-15 11:53N 40°38' W 074°12'0 0.0
2017-Nov-15 11:29N 40°38' W 074°12'0 0.0
2017-Nov-15 10:59N 40°38' W 074°12'0 0.0
2017-Nov-15 10:29N 40°38' W 074°12'0 0.0
2017-Nov-15 09:59N 40°38' W 074°12'0 0.0
2017-Nov-15 09:29N 40°38' W 074°12'0 0.0
2017-Nov-15 08:59N 40°38' W 074°12'0 0.0
2017-Nov-15 08:29N 40°38' W 074°12'0 0.0
2017-Nov-15 07:59N 40°38' W 074°12'0 0.0
2017-Nov-15 07:30N 40°38' W 074°12'1 1.4
2017-Nov-15 07:00N 40°38' W 074°12'2 4.8
2017-Nov-15 06:30N 40°39' W 074°09'3 6.1
2017-Nov-15 06:00N 40°39' W 074°05'2 3.6
2017-Nov-15 05:30N 40°39' W 074°02'0 0.0
2017-Nov-15 04:59N 40°39' W 074°02'0 0.0
2017-Nov-15 04:29N 40°39' W 074°02'0 0.0
2017-Nov-15 03:59N 40°39' W 074°02'0 0.0
2017-Nov-15 03:29N 40°39' W 074°02'0 0.1
2017-Nov-15 02:59N 40°39' W 074°02'0 0.0
2017-Nov-15 02:29N 40°39' W 074°02'0 0.0
2017-Nov-15 01:59N 40°39' W 074°02'0 0.0
2017-Nov-15 01:29N 40°39' W 074°02'0 0.0
2017-Nov-15 00:59N 40°39' W 074°02'0 0.0
2017-Nov-15 00:29N 40°39' W 074°02'0 0.0
2017-Nov-14 23:59N 40°39' W 074°02'0 0.2
2017-Nov-14 23:29N 40°39' W 074°02'0 0.2
2017-Nov-14 22:59N 40°39' W 074°02'0 0.2
2017-Nov-14 22:29N 40°39' W 074°02'0 0.1
2017-Nov-14 21:59N 40°39' W 074°02'0 0.2
2017-Nov-14 21:29N 40°39' W 074°02'0 0.1
2017-Nov-14 20:59N 40°39' W 074°02'0 0.0
2017-Nov-14 20:29N 40°39' W 074°02'0 0.0
2017-Nov-14 19:59N 40°39' W 074°02'0 0.1
2017-Nov-14 19:29N 40°39' W 074°02'0 0.0
2017-Nov-14 18:59N 40°39' W 074°02'0 0.0
2017-Nov-14 18:29N 40°39' W 074°02'0 0.0
2017-Nov-14 17:59N 40°39' W 074°02'0 0.0
2017-Nov-14 17:29N 40°39' W 074°02'0 0.0
2017-Nov-14 16:59N 40°39' W 074°02'0 0.0
2017-Nov-14 16:29N 40°39' W 074°02'0 0.0
2017-Nov-14 15:59N 40°39' W 074°02'0 0.0
2017-Nov-14 15:29N 40°39' W 074°02'0 0.0
2017-Nov-14 14:59N 40°39' W 074°02'0 0.1
2017-Nov-14 14:30N 40°39' W 074°02'4 8.0
2017-Nov-14 14:00N 40°42' W 073°59'611.3
2017-Nov-14 13:30N 40°47' W 073°55'5 9.9
2017-Nov-14 13:00N 40°48' W 073°49'5 9.0
2017-Nov-14 12:29N 40°52' W 073°45'510.1
2017-Nov-14 11:57N 40°55' W 073°39'4010.5
2017-Nov-14 08:09N 41°06' W 072°48'210.3
2017-Nov-14 08:00N 41°06' W 072°46'510.2
2017-Nov-14 07:30N 41°07' W 072°40'510.1
2017-Nov-14 07:00N 41°08' W 072°33'5 9.9
2017-Nov-14 06:30N 41°10' W 072°27'5 9.1
2017-Nov-14 06:00N 41°11' W 072°21'4 8.2
2017-Nov-14 05:30N 41°12' W 072°16'4 8.0
2017-Nov-14 04:57N 41°13' W 072°10'46 8.1
2017-Nov-13 23:13N 41°38' W 071°18'210.3
2017-Nov-13 23:00N 41°40' W 071°19'5 9.4
2017-Nov-13 22:30N 41°44' W 071°22'4 0.2
2017-Nov-13 01:56N 41°48' W 071°23'0 0.0
2017-Nov-13 01:26N 41°48' W 071°23'0 0.0
2017-Nov-13 00:56N 41°48' W 071°23'0 0.6
2017-Nov-13 00:21N 41°48' W 071°23'2 5.6
2017-Nov-13 00:00N 41°46' W 071°23'4 8.5
2017-Nov-12 23:30N 41°42' W 071°20'4 8.9
2017-Nov-12 23:01N 41°38' W 071°18'125 8.2
2017-Nov-12 07:53N 40°31' W 073°38'3 9.4
2017-Nov-12 07:30N 40°31' W 073°42'5 9.4
2017-Nov-12 07:00N 40°30' W 073°48'4 9.0
2017-Nov-12 06:30N 40°30' W 073°54'4 7.7
2017-Nov-12 06:00N 40°31' W 073°59'4 7.1
2017-Nov-12 05:30N 40°34' W 074°02'4 8.6
2017-Nov-12 05:01N 40°38' W 074°03'3 6.5
2017-Nov-12 04:30N 40°39' W 074°07'4 7.1
2017-Nov-12 04:01N 40°38' W 074°12'0 0.7
2017-Nov-12 03:27N 40°38' W 074°12'0 0.0
2017-Nov-12 02:57N 40°38' W 074°12'0 0.0
2017-Nov-12 02:30N 40°38' W 074°12'4 6.6
2017-Nov-12 01:58N 40°38' W 074°08'0 0.0
2017-Nov-12 01:28N 40°38' W 074°08'0 0.0
2017-Nov-12 00:58N 40°38' W 074°08'0 0.0
2017-Nov-12 00:28N 40°38' W 074°08'0 0.0
2017-Nov-11 23:58N 40°38' W 074°08'0 0.0
2017-Nov-11 23:28N 40°38' W 074°08'0 0.0
2017-Nov-11 22:58N 40°38' W 074°08'0 0.0
2017-Nov-11 22:28N 40°38' W 074°08'0 0.0
2017-Nov-11 21:58N 40°38' W 074°08'0 0.0
2017-Nov-11 21:28N 40°38' W 074°08'0 0.0
2017-Nov-11 20:55N 40°38' W 074°08'0 0.0
2017-Nov-11 20:31N 40°38' W 074°08'0 0.0
2017-Nov-11 19:55N 40°38' W 074°08'0 0.0
2017-Nov-11 19:25N 40°38' W 074°08'0 0.0
2017-Nov-11 18:58N 40°38' W 074°08'0 0.0
2017-Nov-11 18:25N 40°38' W 074°08'0 0.0
2017-Nov-11 17:58N 40°38' W 074°08'0 0.0
2017-Nov-11 17:28N 40°38' W 074°08'0 0.0
2017-Nov-11 16:58N 40°38' W 074°08'0 0.0
2017-Nov-11 16:25N 40°38' W 074°08'0 0.0
2017-Nov-11 15:58N 40°38' W 074°08'0 0.0
2017-Nov-11 15:28N 40°38' W 074°08'0 0.0
2017-Nov-11 14:58N 40°38' W 074°08'0 0.0
2017-Nov-11 14:28N 40°38' W 074°08'0 0.0
2017-Nov-11 14:00N 40°38' W 074°08'0 0.0
2017-Nov-11 13:30N 40°38' W 074°08'0 0.0
2017-Nov-11 13:01N 40°38' W 074°08'0 0.0
2017-Nov-11 12:27N 40°38' W 074°08'0 0.0
2017-Nov-11 11:58N 40°38' W 074°08'0 0.0
2017-Nov-11 11:28N 40°38' W 074°08'0 0.0
2017-Nov-11 10:58N 40°38' W 074°08'0 0.0
2017-Nov-11 10:28N 40°38' W 074°08'0 0.0
2017-Nov-11 09:58N 40°38' W 074°08'0 0.0
2017-Nov-11 09:31N 40°38' W 074°08'0 0.0
2017-Nov-11 08:58N 40°38' W 074°08'0 0.0
2017-Nov-11 08:30N 40°38' W 074°08'0 0.0
2017-Nov-11 08:00N 40°38' W 074°08'0 0.3
2017-Nov-11 07:30N 40°39' W 074°08'0 0.1
2017-Nov-11 07:00N 40°39' W 074°08'0 0.3
2017-Nov-11 06:30N 40°38' W 074°08'0 0.0
2017-Nov-11 06:00N 40°38' W 074°08'0 0.0
2017-Nov-11 05:30N 40°38' W 074°08'0 0.0
2017-Nov-11 05:00N 40°38' W 074°08'2 5.0
2017-Nov-11 04:30N 40°39' W 074°11'2 3.0
2017-Nov-11 03:59N 40°38' W 074°12'0 0.3
2017-Nov-11 03:30N 40°38' W 074°12'2 3.1
2017-Nov-11 03:00N 40°39' W 074°11'2 3.4
2017-Nov-11 02:30N 40°39' W 074°09'2 4.7
2017-Nov-11 02:00N 40°39' W 074°05'2 4.4
2017-Nov-11 01:30N 40°38' W 074°03'2 4.2
2017-Nov-11 00:58N 40°36' W 074°01'0 0.1
2017-Nov-11 00:28N 40°36' W 074°01'0 0.1
2017-Nov-10 23:58N 40°36' W 074°01'0 0.0
2017-Nov-10 23:28N 40°36' W 074°01'0 0.0
2017-Nov-10 22:55N 40°36' W 074°01'0 0.0
2017-Nov-10 22:28N 40°36' W 074°01'0 0.0
2017-Nov-10 21:58N 40°36' W 074°01'0 0.0
2017-Nov-10 21:28N 40°36' W 074°01'0 0.1
2017-Nov-10 20:58N 40°36' W 074°01'0 0.1
2017-Nov-10 20:28N 40°36' W 074°01'0 0.2
2017-Nov-10 20:00N 40°36' W 074°01'0 0.2
2017-Nov-10 19:30N 40°36' W 074°01'0 0.2
2017-Nov-10 19:00N 40°36' W 074°01'3 5.8
2017-Nov-10 18:30N 40°38' W 074°03'5 9.3
2017-Nov-10 18:00N 40°43' W 074°02'5 9.5
2017-Nov-10 17:30N 40°47' W 073°59'5 9.5
2017-Nov-10 17:00N 40°52' W 073°57'510.0
2017-Nov-10 16:30N 40°56' W 073°54'  
Track history (hours):
 
Tides and Currents Weather Stations Pressure Air Temp Water Temp Dewpoint Dewpoint Depression Visibility Wind Speed Wind Dir Waves Ship Positions

Dean Reinauer

Owner: REINAUER TRANSPORTATION CO.,LLC., STATEN ISLAND, NY. More information available from US FCC via Universal Licensing System and Coast Guard Vessel Documentation Center.

Last reported at 2017-Nov-20 00:24 UTC. Time now 2017-Nov-20 07:58 UTC.
Position N 40°38' W 074°12'.

Length 152 m; draft 6.7 m.

Type: . MMSI: 367563930.

Date/timePositionNaut miles runAvg speedWind from/ knotsBaromVisibWave heightAir tempDewpointWater temp
2017-Nov-20 00:24N 40°38' W 074°12'0 0.0
2017-Nov-20 00:00N 40°38' W 074°12'0 0.0
2017-Nov-19 23:24N 40°38' W 074°12'0 0.0
2017-Nov-19 23:00N 40°38' W 074°12'0 0.1
2017-Nov-19 22:30N 40°38' W 074°12'1 1.9
2017-Nov-19 22:00N 40°38' W 074°12'3 5.9
2017-Nov-19 21:30N 40°39' W 074°08'4 7.4
2017-Nov-19 21:00N 40°40' W 074°03'4 7.9
2017-Nov-19 20:30N 40°42' W 073°59'3 6.0
2017-Nov-19 20:00N 40°45' W 073°58'4 8.1
2017-Nov-19 19:30N 40°48' W 073°54'4 7.1
2017-Nov-19 19:00N 40°48' W 073°49'2 3.9
2017-Nov-19 18:30N 40°49' W 073°47'2 4.5
2017-Nov-19 18:00N 40°51' W 073°46'1 2.8
2017-Nov-19 17:30N 40°52' W 073°45'2 3.6
2017-Nov-19 16:50N 40°54' W 073°42'43 6.0
2017-Nov-19 09:39N 41°02' W 072°46'3 8.8
2017-Nov-19 09:18N 41°02' W 072°42'3 8.6
2017-Nov-19 09:00N 41°03' W 072°39'4 8.4
2017-Nov-19 08:30N 41°05' W 072°34'4 8.2
2017-Nov-19 08:00N 41°07' W 072°29'4 8.0
2017-Nov-19 07:30N 41°08' W 072°24'4 7.3
2017-Nov-19 07:00N 41°10' W 072°20'4 7.4
2017-Nov-19 06:30N 41°11' W 072°15'4 7.5
2017-Nov-19 06:00N 41°13' W 072°10'88 8.4
2017-Nov-18 19:29N 41°58' W 070°29'610.5
2017-Nov-18 18:54N 42°04' W 070°31'510.7
2017-Nov-18 18:28N 42°08' W 070°32'510.5
2017-Nov-18 18:00N 42°13' W 070°36'510.8
2017-Nov-18 17:30N 42°16' W 070°41'510.7
2017-Nov-18 17:01N 42°20' W 070°46'510.4
2017-Nov-18 16:31N 42°23' W 070°52'5 9.9
2017-Nov-18 15:59N 42°20' W 070°58'4 8.5
2017-Nov-18 15:30N 42°22' W 071°03'2 3.5
2017-Nov-18 14:58N 42°23' W 071°01'0 0.7
2017-Nov-18 14:20N 42°24' W 071°01'0 0.0
2017-Nov-18 13:56N 42°24' W 071°01'0 0.0
2017-Nov-18 13:26N 42°24' W 071°01'0 0.0
2017-Nov-18 12:56N 42°24' W 071°01'0 0.0
2017-Nov-18 12:26N 42°24' W 071°01'0 0.0
2017-Nov-18 11:59N 42°24' W 071°01'0 0.0
2017-Nov-18 11:29N 42°24' W 071°01'0 0.0
2017-Nov-18 10:59N 42°24' W 071°01'0 0.0
2017-Nov-18 10:29N 42°24' W 071°01'0 0.0
2017-Nov-18 09:59N 42°24' W 071°01'0 0.0
2017-Nov-18 09:20N 42°24' W 071°01'0 0.0
2017-Nov-18 08:56N 42°24' W 071°01'0 0.0
2017-Nov-18 08:20N 42°24' W 071°01'0 0.0
2017-Nov-18 07:44N 42°24' W 071°01'0 0.0
2017-Nov-18 07:29N 42°24' W 071°01'0 0.0
2017-Nov-18 06:56N 42°24' W 071°01'0 0.0
2017-Nov-18 06:23N 42°24' W 071°01'0 0.0
2017-Nov-18 05:59N 42°24' W 071°01'0 0.0
2017-Nov-18 05:08N 42°24' W 071°01'0 0.0
2017-Nov-18 04:41N 42°24' W 071°01'0 0.0
2017-Nov-18 04:26N 42°24' W 071°01'0 0.0
2017-Nov-18 00:05N 42°24' W 071°01'0 0.0
2017-Nov-17 23:47N 42°24' W 071°01'0 0.0
2017-Nov-17 23:29N 42°24' W 071°01'0 0.0
2017-Nov-17 22:56N 42°24' W 071°01'0 0.0
2017-Nov-17 22:26N 42°24' W 071°01'0 0.0
2017-Nov-17 21:50N 42°24' W 071°01'0 0.0
2017-Nov-17 21:29N 42°24' W 071°01'0 0.0
2017-Nov-17 21:00N 42°24' W 071°01'1 1.9
2017-Nov-17 20:30N 42°23' W 071°02'2 3.1
2017-Nov-17 20:00N 42°22' W 071°03'1 1.0
2017-Nov-17 19:30N 42°21' W 071°02'0 0.0
2017-Nov-17 18:58N 42°21' W 071°02'0 0.0
2017-Nov-17 18:28N 42°21' W 071°02'0 0.0
2017-Nov-17 18:00N 42°21' W 071°02'0 0.0
2017-Nov-17 17:30N 42°21' W 071°02'0 0.0
2017-Nov-17 17:00N 42°21' W 071°02'0 0.0
2017-Nov-17 16:30N 42°21' W 071°02'0 0.0
2017-Nov-17 16:00N 42°21' W 071°02'0 0.0
2017-Nov-17 15:31N 42°21' W 071°02'0 0.0
2017-Nov-17 15:00N 42°21' W 071°02'0 0.0
2017-Nov-17 14:30N 42°21' W 071°02'0 0.0
2017-Nov-17 13:58N 42°21' W 071°02'0 0.0
2017-Nov-17 13:26N 42°21' W 071°02'0 0.0
2017-Nov-17 13:00N 42°21' W 071°02'0 0.0
2017-Nov-17 12:30N 42°21' W 071°02'0 0.0
2017-Nov-17 12:00N 42°21' W 071°02'0 0.0
2017-Nov-17 11:30N 42°21' W 071°02'0 0.0
2017-Nov-17 11:00N 42°21' W 071°02'0 0.0
2017-Nov-17 10:30N 42°21' W 071°02'0 0.0
2017-Nov-17 10:00N 42°21' W 071°02'0 0.0
2017-Nov-17 09:30N 42°21' W 071°02'0 0.0
2017-Nov-17 09:00N 42°21' W 071°02'0 0.0
2017-Nov-17 08:30N 42°21' W 071°02'0 0.1
2017-Nov-17 08:00N 42°21' W 071°02'1 1.5
2017-Nov-17 07:29N 42°21' W 071°01'3 6.6
2017-Nov-17 07:00N 42°20' W 070°57'4 7.7
2017-Nov-17 06:30N 42°23' W 070°53'4 8.2
2017-Nov-17 06:00N 42°21' W 070°48'4 8.9
2017-Nov-17 05:30N 42°18' W 070°43'5 8.8
2017-Nov-17 04:58N 42°15' W 070°39'4 8.9
2017-Nov-17 04:30N 42°12' W 070°35'4 8.7
2017-Nov-17 04:00N 42°08' W 070°32'91 7.6
2017-Nov-16 16:04N 41°14' W 072°10'110.9
2017-Nov-16 16:00N 41°14' W 072°11'510.7
2017-Nov-16 15:30N 41°12' W 072°17'510.4
2017-Nov-16 15:01N 41°10' W 072°24'5 9.5
2017-Nov-16 14:31N 41°08' W 072°29'5 9.2
2017-Nov-16 14:00N 41°07' W 072°35'5 9.1
2017-Nov-16 13:31N 41°06' W 072°41'46 8.9
2017-Nov-16 08:21N 40°54' W 073°40'3 9.4
2017-Nov-16 07:59N 40°52' W 073°44'5 9.2
2017-Nov-16 07:30N 40°48' W 073°47'4 8.6
2017-Nov-16 06:59N 40°48' W 073°53'3 6.3
2017-Nov-16 06:30N 40°47' W 073°56'3 5.8
2017-Nov-16 06:00N 40°44' W 073°58'2 4.5
2017-Nov-16 05:30N 40°42' W 073°60'3 5.2
2017-Nov-16 05:01N 40°40' W 074°02'1 1.2
2017-Nov-16 04:30N 40°40' W 074°03'0 0.7
2017-Nov-16 04:01N 40°40' W 074°03'0 0.4
2017-Nov-16 03:29N 40°39' W 074°03'1 1.2
2017-Nov-16 03:00N 40°39' W 074°03'3 6.4
2017-Nov-16 02:31N 40°39' W 074°08'3 5.7
2017-Nov-16 02:00N 40°39' W 074°11'1 2.3
2017-Nov-16 01:29N 40°38' W 074°12'0 0.0
2017-Nov-16 00:50N 40°38' W 074°12'0 0.0
2017-Nov-16 00:24N 40°38' W 074°12'0 0.0
2017-Nov-16 00:00N 40°38' W 074°12'0 0.0
2017-Nov-15 23:29N 40°38' W 074°12'0 0.0
2017-Nov-15 22:59N 40°38' W 074°12'0 0.0
2017-Nov-15 22:30N 40°38' W 074°12'0 0.0
2017-Nov-15 21:59N 40°38' W 074°12'0 0.0
2017-Nov-15 21:26N 40°38' W 074°12'0 0.0
2017-Nov-15 20:59N 40°38' W 074°12'0 0.0
2017-Nov-15 20:26N 40°38' W 074°12'0 0.0
2017-Nov-15 19:59N 40°38' W 074°12'0 0.0
2017-Nov-15 19:29N 40°38' W 074°12'0 0.0
2017-Nov-15 18:59N 40°38' W 074°12'0 0.0
2017-Nov-15 18:29N 40°38' W 074°12'0 0.0
2017-Nov-15 17:47N 40°38' W 074°12'0 0.0
2017-Nov-15 17:29N 40°38' W 074°12'0 0.0
2017-Nov-15 16:59N 40°38' W 074°12'0 0.0
2017-Nov-15 16:26N 40°38' W 074°12'0 0.0
2017-Nov-15 15:59N 40°38' W 074°12'0 0.0
2017-Nov-15 15:29N 40°38' W 074°12'0 0.0
2017-Nov-15 14:53N 40°38' W 074°12'0 0.0
2017-Nov-15 14:29N 40°38' W 074°12'0 0.0
2017-Nov-15 13:59N 40°38' W 074°12'0 0.0
2017-Nov-15 13:23N 40°38' W 074°12'0 0.0
2017-Nov-15 12:59N 40°38' W 074°12'0 0.0
2017-Nov-15 12:29N 40°38' W 074°12'0 0.0
2017-Nov-15 11:53N 40°38' W 074°12'0 0.0
2017-Nov-15 11:29N 40°38' W 074°12'0 0.0
2017-Nov-15 10:59N 40°38' W 074°12'0 0.0
2017-Nov-15 10:29N 40°38' W 074°12'0 0.0
2017-Nov-15 09:59N 40°38' W 074°12'0 0.0
2017-Nov-15 09:29N 40°38' W 074°12'0 0.0
2017-Nov-15 08:59N 40°38' W 074°12'0 0.0
2017-Nov-15 08:29N 40°38' W 074°12'0 0.0
2017-Nov-15 07:59N 40°38' W 074°12'0 0.0
2017-Nov-15 07:30N 40°38' W 074°12'1 1.4
2017-Nov-15 07:00N 40°38' W 074°12'2 4.8
2017-Nov-15 06:30N 40°39' W 074°09'3 6.1
2017-Nov-15 06:00N 40°39' W 074°05'2 3.6
2017-Nov-15 05:30N 40°39' W 074°02'0 0.0
2017-Nov-15 04:59N 40°39' W 074°02'0 0.0
2017-Nov-15 04:29N 40°39' W 074°02'0 0.0
2017-Nov-15 03:59N 40°39' W 074°02'0 0.0
2017-Nov-15 03:29N 40°39' W 074°02'0 0.1
2017-Nov-15 02:59N 40°39' W 074°02'0 0.0
2017-Nov-15 02:29N 40°39' W 074°02'0 0.0
2017-Nov-15 01:59N 40°39' W 074°02'0 0.0
2017-Nov-15 01:29N 40°39' W 074°02'0 0.0
2017-Nov-15 00:59N 40°39' W 074°02'0 0.0
2017-Nov-15 00:29N 40°39' W 074°02'0 0.0
2017-Nov-14 23:59N 40°39' W 074°02'0 0.2
2017-Nov-14 23:29N 40°39' W 074°02'0 0.2
2017-Nov-14 22:59N 40°39' W 074°02'0 0.2
2017-Nov-14 22:29N 40°39' W 074°02'0 0.1
2017-Nov-14 21:59N 40°39' W 074°02'0 0.2
2017-Nov-14 21:29N 40°39' W 074°02'0 0.1
2017-Nov-14 20:59N 40°39' W 074°02'0 0.0
2017-Nov-14 20:29N 40°39' W 074°02'0 0.0
2017-Nov-14 19:59N 40°39' W 074°02'0 0.1
2017-Nov-14 19:29N 40°39' W 074°02'0 0.0
2017-Nov-14 18:59N 40°39' W 074°02'0 0.0
2017-Nov-14 18:29N 40°39' W 074°02'0 0.0
2017-Nov-14 17:59N 40°39' W 074°02'0 0.0
2017-Nov-14 17:29N 40°39' W 074°02'0 0.0
2017-Nov-14 16:59N 40°39' W 074°02'0 0.0
2017-Nov-14 16:29N 40°39' W 074°02'0 0.0
2017-Nov-14 15:59N 40°39' W 074°02'0 0.0
2017-Nov-14 15:29N 40°39' W 074°02'0 0.0
2017-Nov-14 14:59N 40°39' W 074°02'0 0.1
2017-Nov-14 14:30N 40°39' W 074°02'4 8.0
2017-Nov-14 14:00N 40°42' W 073°59'611.3
2017-Nov-14 13:30N 40°47' W 073°55'5 9.9
2017-Nov-14 13:00N 40°48' W 073°49'5 9.0
2017-Nov-14 12:29N 40°52' W 073°45'510.1
2017-Nov-14 11:57N 40°55' W 073°39'4010.5
2017-Nov-14 08:09N 41°06' W 072°48'210.3
2017-Nov-14 08:00N 41°06' W 072°46'510.2
2017-Nov-14 07:30N 41°07' W 072°40'510.1
2017-Nov-14 07:00N 41°08' W 072°33'5 9.9
2017-Nov-14 06:30N 41°10' W 072°27'5 9.1
2017-Nov-14 06:00N 41°11' W 072°21'4 8.2
2017-Nov-14 05:30N 41°12' W 072°16'4 8.0
2017-Nov-14 04:57N 41°13' W 072°10'46 8.1
2017-Nov-13 23:13N 41°38' W 071°18'210.3
2017-Nov-13 23:00N 41°40' W 071°19'5 9.4
2017-Nov-13 22:30N 41°44' W 071°22'4 0.2
2017-Nov-13 01:56N 41°48' W 071°23'0 0.0
2017-Nov-13 01:26N 41°48' W 071°23'0 0.0
2017-Nov-13 00:56N 41°48' W 071°23'0 0.6
2017-Nov-13 00:21N 41°48' W 071°23'2 5.6
2017-Nov-13 00:00N 41°46' W 071°23'4 8.5
2017-Nov-12 23:30N 41°42' W 071°20'4 8.9
2017-Nov-12 23:01N 41°38' W 071°18'125 8.2
2017-Nov-12 07:53N 40°31' W 073°38'3 9.4
2017-Nov-12 07:30N 40°31' W 073°42'5 9.4
2017-Nov-12 07:00N 40°30' W 073°48'4 9.0
2017-Nov-12 06:30N 40°30' W 073°54'4 7.7
2017-Nov-12 06:00N 40°31' W 073°59'4 7.1
2017-Nov-12 05:30N 40°34' W 074°02'4 8.6
2017-Nov-12 05:01N 40°38' W 074°03'3 6.5
2017-Nov-12 04:30N 40°39' W 074°07'4 7.1
2017-Nov-12 04:01N 40°38' W 074°12'0 0.7
2017-Nov-12 03:27N 40°38' W 074°12'0 0.0
2017-Nov-12 02:57N 40°38' W 074°12'0 0.0
2017-Nov-12 02:30N 40°38' W 074°12'4 6.6
2017-Nov-12 01:58N 40°38' W 074°08'0 0.0
2017-Nov-12 01:28N 40°38' W 074°08'0 0.0
2017-Nov-12 00:58N 40°38' W 074°08'0 0.0
2017-Nov-12 00:28N 40°38' W 074°08'0 0.0
2017-Nov-11 23:58N 40°38' W 074°08'0 0.0
2017-Nov-11 23:28N 40°38' W 074°08'0 0.0
2017-Nov-11 22:58N 40°38' W 074°08'0 0.0
2017-Nov-11 22:28N 40°38' W 074°08'0 0.0
2017-Nov-11 21:58N 40°38' W 074°08'0 0.0
2017-Nov-11 21:28N 40°38' W 074°08'0 0.0
2017-Nov-11 20:55N 40°38' W 074°08'0 0.0
2017-Nov-11 20:31N 40°38' W 074°08'0 0.0
2017-Nov-11 19:55N 40°38' W 074°08'0 0.0
2017-Nov-11 19:25N 40°38' W 074°08'0 0.0
2017-Nov-11 18:58N 40°38' W 074°08'0 0.0
2017-Nov-11 18:25N 40°38' W 074°08'0 0.0
2017-Nov-11 17:58N 40°38' W 074°08'0 0.0
2017-Nov-11 17:28N 40°38' W 074°08'0 0.0
2017-Nov-11 16:58N 40°38' W 074°08'0 0.0
2017-Nov-11 16:25N 40°38' W 074°08'0 0.0
2017-Nov-11 15:58N 40°38' W 074°08'0 0.0
2017-Nov-11 15:28N 40°38' W 074°08'0 0.0
2017-Nov-11 14:58N 40°38' W 074°08'0 0.0
2017-Nov-11 14:28N 40°38' W 074°08'0 0.0
2017-Nov-11 14:00N 40°38' W 074°08'0 0.0
2017-Nov-11 13:30N 40°38' W 074°08'0 0.0
2017-Nov-11 13:01N 40°38' W 074°08'0 0.0
2017-Nov-11 12:27N 40°38' W 074°08'0 0.0
2017-Nov-11 11:58N 40°38' W 074°08'0 0.0
2017-Nov-11 11:28N 40°38' W 074°08'0 0.0
2017-Nov-11 10:58N 40°38' W 074°08'0 0.0
2017-Nov-11 10:28N 40°38' W 074°08'0 0.0
2017-Nov-11 09:58N 40°38' W 074°08'0 0.0
2017-Nov-11 09:31N 40°38' W 074°08'0 0.0
2017-Nov-11 08:58N 40°38' W 074°08'0 0.0
2017-Nov-11 08:30N 40°38' W 074°08'0 0.0
2017-Nov-11 08:00N 40°38' W 074°08'0 0.3
2017-Nov-11 07:30N 40°39' W 074°08'0 0.1
2017-Nov-11 07:00N 40°39' W 074°08'0 0.3
2017-Nov-11 06:30N 40°38' W 074°08'0 0.0
2017-Nov-11 06:00N 40°38' W 074°08'0 0.0
2017-Nov-11 05:30N 40°38' W 074°08'0 0.0
2017-Nov-11 05:00N 40°38' W 074°08'2 5.0
2017-Nov-11 04:30N 40°39' W 074°11'2 3.0
2017-Nov-11 03:59N 40°38' W 074°12'0 0.3
2017-Nov-11 03:30N 40°38' W 074°12'2 3.1
2017-Nov-11 03:00N 40°39' W 074°11'2 3.4
2017-Nov-11 02:30N 40°39' W 074°09'2 4.7
2017-Nov-11 02:00N 40°39' W 074°05'2 4.4
2017-Nov-11 01:30N 40°38' W 074°03'2 4.2
2017-Nov-11 00:58N 40°36' W 074°01'0 0.1
2017-Nov-11 00:28N 40°36' W 074°01'0 0.1
2017-Nov-10 23:58N 40°36' W 074°01'0 0.0
2017-Nov-10 23:28N 40°36' W 074°01'0 0.0
2017-Nov-10 22:55N 40°36' W 074°01'0 0.0
2017-Nov-10 22:28N 40°36' W 074°01'0 0.0
2017-Nov-10 21:58N 40°36' W 074°01'0 0.0
2017-Nov-10 21:28N 40°36' W 074°01'0 0.1
2017-Nov-10 20:58N 40°36' W 074°01'0 0.1
2017-Nov-10 20:28N 40°36' W 074°01'0 0.2
2017-Nov-10 20:00N 40°36' W 074°01'0 0.2
2017-Nov-10 19:30N 40°36' W 074°01'0 0.2
2017-Nov-10 19:00N 40°36' W 074°01'3 5.8
2017-Nov-10 18:30N 40°38' W 074°03'5 9.3
2017-Nov-10 18:00N 40°43' W 074°02'5 9.5
2017-Nov-10 17:30N 40°47' W 073°59'5 9.5
2017-Nov-10 17:00N 40°52' W 073°57'510.0
2017-Nov-10 16:30N 40°56' W 073°54'  

Dump ship's entire track history